createdAt,value
2019-01-19T00:04:05.086Z,95.70
2019-01-19T00:09:14.032Z,98.35
2019-01-19T00:14:22.958Z,110.76
2019-01-19T00:19:31.890Z,109.08
2019-01-19T00:24:40.874Z,105.26
2019-01-19T00:29:49.827Z,97.49
2019-01-19T00:34:58.815Z,106.89
2019-01-19T00:40:07.750Z,94.92
2019-01-19T00:45:16.783Z,102.85
2019-01-19T00:50:25.705Z,103.15
2019-01-19T00:55:34.710Z,105.26
2019-01-19T01:00:43.641Z,97.41
2019-01-19T01:05:52.610Z,101.15
2019-01-19T01:11:01.542Z,101.41
2019-01-19T01:16:10.530Z,113.08
2019-01-19T01:21:19.534Z,106.83
2019-01-19T01:26:28.548Z,104.68
2019-01-19T01:31:37.515Z,109.00
2019-01-19T01:36:46.474Z,105.58
2019-01-19T01:41:55.908Z,105.62
2019-01-19T01:47:03.898Z,107.59
2019-01-19T01:52:12.875Z,95.42
2019-01-19T01:57:21.779Z,93.22
2019-01-19T02:02:30.805Z,93.14
2019-01-19T02:07:39.762Z,96.24
2019-01-19T02:12:48.786Z,96.75
2019-01-19T02:17:57.750Z,98.67
2019-01-19T02:23:06.741Z,93.91
2019-01-19T02:28:15.687Z,96.20
2019-01-19T02:33:24.674Z,87.73
2019-01-19T02:38:33.628Z,93.19
2019-01-19T02:43:42.594Z,92.10
2019-01-19T02:48:51.550Z,97.74
2019-01-19T02:54:00.583Z,90.52
2019-01-19T02:59:09.543Z,85.18
2019-01-19T03:04:18.537Z,83.59
2019-01-19T03:09:27.495Z,78.66
2019-01-19T03:14:36.482Z,73.25
2019-01-19T03:19:45.430Z,70.93
2019-01-19T03:24:54.459Z,72.52
2019-01-19T03:30:03.400Z,64.02
2019-01-19T03:35:12.331Z,64.27
2019-01-19T03:40:21.359Z,69.42
2019-01-19T03:45:30.327Z,64.35
2019-01-19T03:50:39.310Z,69.24
2019-01-19T03:55:48.249Z,62.03
2019-01-19T04:00:57.211Z,66.61
2019-01-19T04:06:12.559Z,60.11
2019-01-19T04:11:14.722Z,58.10
2019-01-19T04:16:23.667Z,61.54
2019-01-19T04:21:32.693Z,60.89
2019-01-19T04:26:41.650Z,56.26
2019-01-19T04:31:50.608Z,53.24
2019-01-19T04:36:59.598Z,51.24
2019-01-19T04:42:08.567Z,51.89
2019-01-19T04:47:17.613Z,51.76
2019-01-19T04:52:26.554Z,51.70
2019-01-19T04:57:35.518Z,52.25
2019-01-19T05:02:44.490Z,48.82
2019-01-19T05:07:53.442Z,49.90
2019-01-19T05:13:02.390Z,45.49
2019-01-19T05:18:11.391Z,47.70
2019-01-19T05:23:20.314Z,42.67
2019-01-19T05:28:29.311Z,43.93
2019-01-19T05:33:38.259Z,42.28
2019-01-19T05:38:47.278Z,45.54
2019-01-19T05:43:56.212Z,41.76
2019-01-19T05:49:05.175Z,38.11
2019-01-19T05:54:14.694Z,39.84
2019-01-19T05:59:23.711Z,41.94
2019-01-19T06:04:32.667Z,39.37
2019-01-19T06:09:41.655Z,38.10
2019-01-19T06:14:50.610Z,39.96
2019-01-19T06:19:59.603Z,35.72
2019-01-19T06:25:08.574Z,36.98
2019-01-19T06:30:17.610Z,36.75
2019-01-19T06:35:26.535Z,34.99
2019-01-19T06:40:35.543Z,34.20
2019-01-19T06:45:44.511Z,36.16
2019-01-19T06:50:53.462Z,36.68
2019-01-19T06:56:02.415Z,35.52
2019-01-19T07:01:11.432Z,34.84
2019-01-19T07:06:20.402Z,32.96
2019-01-19T07:11:29.400Z,33.74
2019-01-19T07:16:38.370Z,35.41
2019-01-19T07:21:47.349Z,35.15
2019-01-19T07:26:56.290Z,35.10
2019-01-19T07:32:05.259Z,37.15
2019-01-19T07:37:15.360Z,33.13
2019-01-19T07:42:14.523Z,33.11
2019-01-19T07:47:23.515Z,39.03
2019-01-19T07:52:32.482Z,36.21
2019-01-19T07:57:41.398Z,35.39
2019-01-19T08:02:50.371Z,37.10
2019-01-19T08:07:59.382Z,38.26
2019-01-19T08:13:08.331Z,37.97
2019-01-19T08:18:17.275Z,37.71
2019-01-19T08:23:26.303Z,41.01
2019-01-19T08:28:35.218Z,38.85
2019-01-19T08:33:44.234Z,37.15
2019-01-19T08:38:53.152Z,38.35
2019-01-19T08:44:02.134Z,37.30
2019-01-19T08:49:11.091Z,41.74
2019-01-19T08:54:20.070Z,37.35
2019-01-19T08:59:29.018Z,42.00
2019-01-19T09:04:38.078Z,43.88
2019-01-19T09:09:47.010Z,41.92
2019-01-19T09:14:56.058Z,39.82
2019-01-19T09:20:04.982Z,42.99
2019-01-19T09:25:13.990Z,43.69
2019-01-19T09:30:24.530Z,42.02
2019-01-19T09:35:24.691Z,46.79
2019-01-19T09:40:23.686Z,42.72
2019-01-19T09:45:32.729Z,44.44
2019-01-19T09:50:41.634Z,45.33
2019-01-19T09:55:50.590Z,44.77
2019-01-19T10:00:59.546Z,42.58
2019-01-19T10:06:08.531Z,44.09
2019-01-19T10:11:17.501Z,46.52
2019-01-19T10:16:26.518Z,46.96
2019-01-19T10:21:35.474Z,46.44
2019-01-19T10:26:44.487Z,46.02
2019-01-19T10:31:53.418Z,46.51
2019-01-19T10:37:02.491Z,46.79
2019-01-19T10:42:11.446Z,43.62
2019-01-19T10:47:20.430Z,41.24
2019-01-19T10:52:29.399Z,42.11
2019-01-19T10:57:38.475Z,41.84
2019-01-19T11:02:47.438Z,43.05
2019-01-19T11:08:03.198Z,40.92
2019-01-19T11:13:04.870Z,38.42
2019-01-19T11:18:13.854Z,38.63
2019-01-19T11:23:22.810Z,35.81
2019-01-19T11:28:31.871Z,34.91
2019-01-19T11:33:40.814Z,35.08
2019-01-19T11:38:49.816Z,31.69
2019-01-19T11:43:58.742Z,35.08
2019-01-19T11:49:07.718Z,31.89
2019-01-19T11:54:16.647Z,32.74
2019-01-19T11:59:25.653Z,32.75
2019-01-19T12:04:34.603Z,30.84
2019-01-19T12:09:43.579Z,29.81
2019-01-19T12:14:52.515Z,32.05
2019-01-19T12:20:01.466Z,26.42
2019-01-19T12:25:10.422Z,25.35
2019-01-19T12:30:19.442Z,28.97
2019-01-19T12:35:28.407Z,29.81
2019-01-19T12:40:37.330Z,26.32
2019-01-19T12:45:46.293Z,28.94
2019-01-19T12:50:53.821Z,27.57
2019-01-19T12:56:02.754Z,25.11
2019-01-19T13:01:11.966Z,25.66
2019-01-19T13:06:20.915Z,25.22
2019-01-19T13:11:30.506Z,26.33
2019-01-19T13:16:39.447Z,23.03
2019-01-19T13:21:48.471Z,23.52
2019-01-19T13:26:57.424Z,23.01
2019-01-19T13:32:06.358Z,21.40
2019-01-19T13:37:15.327Z,23.32
2019-01-19T13:42:24.282Z,27.30
2019-01-19T13:47:33.215Z,26.72
2019-01-19T13:52:42.412Z,23.31
2019-01-19T13:57:51.239Z,24.70
2019-01-19T14:03:00.182Z,24.09
2019-01-19T14:08:09.099Z,23.95
2019-01-19T14:13:18.154Z,21.08
2019-01-19T14:18:27.086Z,22.49
2019-01-19T14:23:36.050Z,22.60
2019-01-19T14:28:45.017Z,21.36
2019-01-19T14:33:54.030Z,21.28
2019-01-19T14:39:02.974Z,20.42
2019-01-19T14:44:11.983Z,22.42
2019-01-19T14:49:20.965Z,21.38
2019-01-19T14:54:29.946Z,20.13
2019-01-19T14:59:38.893Z,22.42
2019-01-19T15:04:47.842Z,20.58
2019-01-19T15:09:56.758Z,19.99
2019-01-19T15:15:05.683Z,22.13
2019-01-19T15:20:14.654Z,21.41
2019-01-19T15:25:23.683Z,21.13
2019-01-19T15:30:32.599Z,19.72
2019-01-19T15:35:41.690Z,20.74
2019-01-19T15:40:50.610Z,21.95
2019-01-19T15:45:59.611Z,21.40
2019-01-19T15:51:08.523Z,23.70
2019-01-19T15:56:17.566Z,21.28
2019-01-19T16:01:26.493Z,20.70
2019-01-19T16:06:35.524Z,20.92
2019-01-19T16:11:44.462Z,21.11
2019-01-19T16:16:53.444Z,21.54
2019-01-19T16:22:02.413Z,19.41
2019-01-19T16:27:11.386Z,21.61
2019-01-19T16:32:20.308Z,21.16
2019-01-19T16:37:29.306Z,19.84
2019-01-19T16:42:39.124Z,20.78
2019-01-19T16:47:46.982Z,21.77
2019-01-19T16:52:55.938Z,21.33
2019-01-19T16:58:04.884Z,20.84
2019-01-19T17:03:13.891Z,20.68
2019-01-19T17:08:22.837Z,19.33
2019-01-19T17:13:31.856Z,19.39
2019-01-19T17:18:40.813Z,19.93
2019-01-19T17:23:49.819Z,17.96
2019-01-19T17:28:58.750Z,18.49
2019-01-19T17:34:07.790Z,18.62
2019-01-19T17:39:16.897Z,17.67
2019-01-19T17:44:25.858Z,17.77
2019-01-19T17:49:34.899Z,19.47
2019-01-19T17:54:43.834Z,17.78
2019-01-19T17:59:52.798Z,18.19
2019-01-19T18:05:01.766Z,17.31
2019-01-19T18:10:10.716Z,16.13
2019-01-19T18:15:19.695Z,18.27
2019-01-19T18:20:28.728Z,18.15
2019-01-19T18:25:37.650Z,16.34
2019-01-19T18:30:46.726Z,15.74
2019-01-19T18:35:55.671Z,15.45
2019-01-19T18:41:04.709Z,15.48
2019-01-19T18:46:13.631Z,17.83
2019-01-19T18:51:22.614Z,17.90
2019-01-19T18:56:31.571Z,19.56
2019-01-19T19:01:40.568Z,17.35
2019-01-19T19:06:49.526Z,17.55
2019-01-19T19:11:58.462Z,17.75
2019-01-19T19:17:07.491Z,18.92
2019-01-19T19:22:16.446Z,18.49
2019-01-19T19:27:25.446Z,17.53
2019-01-19T19:32:34.398Z,17.47
2019-01-19T19:37:43.411Z,17.23
2019-01-19T19:42:52.338Z,17.53
2019-01-19T19:48:01.302Z,16.95
2019-01-19T19:53:10.282Z,15.87
2019-01-19T19:58:19.346Z,17.55
2019-01-19T20:03:28.310Z,18.42
2019-01-19T20:08:37.366Z,16.05
2019-01-19T20:13:46.290Z,15.06
2019-01-19T20:18:55.310Z,17.15
2019-01-19T20:24:04.234Z,16.92
2019-01-19T20:29:13.264Z,19.79
2019-01-19T20:34:22.206Z,18.76
2019-01-19T20:39:31.175Z,18.76
2019-01-19T20:44:40.186Z,20.58
2019-01-19T20:49:49.130Z,18.11
2019-01-19T20:54:58.074Z,18.99
2019-01-19T21:00:07.037Z,17.66
2019-01-19T21:05:16.062Z,17.90
2019-01-19T21:10:31.511Z,17.83
2019-01-19T21:15:33.607Z,18.13
2019-01-19T21:20:42.544Z,17.18
2019-01-19T21:25:51.474Z,20.10
2019-01-19T21:31:00.515Z,18.53
2019-01-19T21:36:09.462Z,18.75
2019-01-19T21:41:18.488Z,18.59
2019-01-19T21:46:27.489Z,18.56
2019-01-19T21:51:36.610Z,17.94
2019-01-19T21:56:45.693Z,17.46
2019-01-19T22:01:54.586Z,18.20
2019-01-19T22:07:04.000Z,18.33
2019-01-19T22:12:13.070Z,18.29
2019-01-19T22:17:22.106Z,16.31
2019-01-19T22:22:31.055Z,17.81
2019-01-19T22:27:40.071Z,17.14
2019-01-19T22:32:49.024Z,15.17
2019-01-19T22:37:58.007Z,17.33
2019-01-19T22:43:06.954Z,17.65
2019-01-19T22:48:15.898Z,17.32
2019-01-19T22:53:24.963Z,17.77
2019-01-19T22:58:33.899Z,16.27
2019-01-19T23:03:42.894Z,16.71
2019-01-19T23:08:51.827Z,17.46
2019-01-19T23:14:00.802Z,16.23
2019-01-19T23:19:09.750Z,17.50
2019-01-19T23:24:18.714Z,17.53
2019-01-19T23:29:27.661Z,17.99
2019-01-19T23:34:36.626Z,16.65
2019-01-19T23:39:45.554Z,20.43
2019-01-19T23:44:54.510Z,19.29
2019-01-19T23:50:03.450Z,16.48
2019-01-19T23:55:12.492Z,16.28
